Time;durP1;ratioP1;P1;durP2;ratioP2;P2;SDS_P1;SDS_P2;PMS_P1;PMS_P2;Temp;Humidity;BMP_temperature;BMP_pressure;BME280_temperature;BME280_humidity;BME280_pressure;Samples;Min_cycle;Max_cycle;Signal;HPM_P1;HPM_P2
2022/07/28 00:00:44;;;;;;;0.00;0.00;;;;;;;15.17;76.31;98258.09;5076828;28;20113;-64
2022/07/28 00:03:11;;;;;;;0.00;0.00;;;;;;;15.20;76.17;98241.09;5076740;28;20033;-64
2022/07/28 00:05:39;;;;;;;0.00;0.00;;;;;;;15.18;76.23;98253.63;5076784;28;20054;-64
2022/07/28 00:08:09;;;;;;;0.00;0.00;;;;;;;15.11;76.80;98249.72;5077012;28;20049;-64
2022/07/28 00:10:36;;;;;;;0.00;0.00;;;;;;;15.08;76.87;98250.00;5076700;28;20048;-64
2022/07/28 00:13:04;;;;;;;0.00;0.00;;;;;;;15.06;77.06;98254.56;5076619;28;20374;-64
2022/07/28 00:15:31;;;;;;;0.00;0.00;;;;;;;15.02;77.46;98258.44;5076647;28;20044;-63
2022/07/28 00:18:00;;;;;;;0.00;0.00;;;;;;;14.97;77.43;98263.25;5076463;28;20052;-64
2022/07/28 00:20:29;;;;;;;0.00;0.00;;;;;;;14.96;77.94;98262.41;5076588;28;20040;-64
2022/07/28 00:22:56;;;;;;;0.00;0.00;;;;;;;14.91;78.14;98255.78;5076476;28;20501;-63
2022/07/28 00:25:24;;;;;;;0.00;0.00;;;;;;;14.80;78.33;98255.75;5076681;28;20056;-63
2022/07/28 00:27:52;;;;;;;0.00;0.00;;;;;;;14.73;78.80;98273.09;5076476;28;20036;-64
2022/07/28 00:30:19;;;;;;;0.00;0.00;;;;;;;14.69;78.61;98263.69;5076495;28;20049;-64
2022/07/28 00:32:47;;;;;;;0.00;0.00;;;;;;;14.67;79.02;98266.47;5076342;28;20037;-64
2022/07/28 00:35:16;;;;;;;0.00;0.00;;;;;;;14.60;79.06;98265.22;5076750;28;20052;-65
2022/07/28 00:37:43;;;;;;;0.00;0.00;;;;;;;14.53;79.49;98271.97;5076608;28;20043;-65
2022/07/28 00:40:12;;;;;;;0.00;0.00;;;;;;;14.57;79.69;98269.94;5076420;28;20048;-63
2022/07/28 00:42:39;;;;;;;0.00;0.00;;;;;;;14.49;79.75;98270.50;5076347;28;20068;-64
2022/07/28 00:45:08;;;;;;;0.00;0.00;;;;;;;14.48;79.94;98272.31;5076290;28;20044;-64
2022/07/28 00:47:35;;;;;;;0.00;0.00;;;;;;;14.49;79.59;98267.84;5076540;28;20332;-64
2022/07/28 00:50:03;;;;;;;0.00;0.00;;;;;;;14.53;79.52;98270.16;5076211;28;20053;-64
2022/07/28 00:52:33;;;;;;;0.00;0.00;;;;;;;14.57;79.26;98267.28;5076279;28;20040;-64
2022/07/28 00:55:02;;;;;;;0.00;0.00;;;;;;;14.56;78.97;98263.78;5076225;28;20048;-64
2022/07/28 00:57:30;;;;;;;0.00;0.00;;;;;;;14.57;79.04;98262.00;5076338;28;20098;-64
2022/07/28 00:59:57;;;;;;;0.00;0.00;;;;;;;14.62;78.85;98262.47;5076892;28;20048;-63
2022/07/28 01:02:25;;;;;;;0.00;0.00;;;;;;;14.55;78.65;98252.34;5080230;28;20043;-64
2022/07/28 01:04:55;;;;;;;0.00;0.00;;;;;;;14.49;78.94;98257.25;5079867;28;20086;-64
2022/07/28 01:07:32;;;;;;;0.00;0.00;;;;;;;14.44;79.55;98254.97;5080200;28;20150;-64
2022/07/28 01:10:08;;;;;;;0.00;0.00;;;;;;;14.38;79.55;98258.09;5079520;28;20048;-63
2022/07/28 01:12:50;;;;;;;0.00;0.00;;;;;;;14.34;79.44;98255.78;5080030;28;20075;-64
2022/07/28 01:15:25;;;;;;;0.00;0.00;;;;;;;14.34;79.31;98269.88;5079895;28;20074;-64
2022/07/28 01:18:03;;;;;;;0.00;0.00;;;;;;;14.39;79.04;98262.41;5079483;28;20502;-64
2022/07/28 01:20:37;;;;;;;0.00;0.00;;;;;;;14.35;79.18;98263.63;5079639;28;20067;-64
2022/07/28 01:23:19;;;;;;;0.00;0.00;;;;;;;14.35;79.28;98276.00;5079926;28;20041;-63
2022/07/28 01:26:06;;;;;;;0.00;0.00;;;;;;;14.45;78.86;98267.25;5078875;28;20394;-64
2022/07/28 01:28:46;;;;;;;0.00;0.00;;;;;;;14.47;78.39;98270.63;5079685;28;20052;-64
2022/07/28 01:31:24;;;;;;;0.00;0.00;;;;;;;14.50;78.01;98265.09;5079757;28;20053;-64
2022/07/28 01:33:58;;;;;;;0.00;0.00;;;;;;;14.46;77.97;98266.28;5079519;28;20068;-64
2022/07/28 01:36:29;;;;;;;0.00;0.00;;;;;;;14.45;78.09;98269.91;5079459;28;20394;-64
2022/07/28 01:38:58;;;;;;;0.00;0.00;;;;;;;14.45;77.49;98267.25;5079422;28;20044;-65
2022/07/28 01:41:28;;;;;;;0.00;0.00;;;;;;;14.40;77.55;98264.09;5078884;28;20068;-64
2022/07/28 01:43:59;;;;;;;0.00;0.00;;;;;;;14.39;77.85;98267.72;5079312;28;20041;-64
2022/07/28 01:46:29;;;;;;;0.00;0.00;;;;;;;14.45;77.29;98271.69;5079647;28;20343;-64
2022/07/28 01:48:58;;;;;;;0.00;0.00;;;;;;;14.38;77.31;98267.81;5079346;28;20049;-64
2022/07/28 01:51:30;;;;;;;0.00;0.00;;;;;;;14.39;76.81;98266.88;5079403;28;20079;-64
2022/07/28 01:54:00;;;;;;;0.00;0.00;;;;;;;14.43;76.25;98269.16;5079097;28;20127;-64
2022/07/28 01:56:29;;;;;;;0.00;0.00;;;;;;;14.45;75.95;98274.34;5079322;28;20048;-64
2022/07/28 01:58:59;;;;;;;0.00;0.00;;;;;;;14.43;76.05;98271.00;5078887;28;20051;-64
2022/07/28 02:01:30;;;;;;;0.00;0.00;;;;;;;14.38;76.49;98266.03;5079168;28;20041;-64
2022/07/28 02:04:00;;;;;;;0.00;0.00;;;;;;;14.32;76.51;98269.13;5078968;28;20451;-65
2022/07/28 02:06:29;;;;;;;0.00;0.00;;;;;;;14.31;76.83;98263.97;5078779;28;20040;-64
2022/07/28 02:08:58;;;;;;;0.00;0.00;;;;;;;14.30;76.64;98263.13;5078092;28;20505;-65
2022/07/28 02:11:41;;;;;;;0.00;0.00;;;;;;;14.27;76.75;98263.34;5077992;28;20059;-64
2022/07/28 02:14:11;;;;;;;0.00;0.00;;;;;;;14.18;77.10;98273.78;5078806;28;20135;-65
2022/07/28 02:16:42;;;;;;;0.00;0.00;;;;;;;14.22;77.03;98269.94;5078515;28;20044;-65
2022/07/28 02:19:13;;;;;;;0.00;0.00;;;;;;;14.22;76.76;98264.66;5078674;28;20051;-64
2022/07/28 02:21:42;;;;;;;0.00;0.00;;;;;;;14.22;76.41;98268.13;5078698;28;20056;-64
2022/07/28 02:24:11;;;;;;;0.00;0.00;;;;;;;14.21;76.18;98263.81;5078789;28;20123;-64
2022/07/28 02:26:42;;;;;;;0.00;0.00;;;;;;;14.22;75.57;98265.47;5079028;28;20052;-65
2022/07/28 02:29:14;;;;;;;0.00;0.00;;;;;;;14.22;75.19;98276.06;5078513;28;20048;-64
2022/07/28 02:31:50;;;;;;;0.00;0.00;;;;;;;14.25;75.19;98283.78;5078607;28;20066;-64
2022/07/28 02:34:22;;;;;;;0.00;0.00;;;;;;;14.24;75.21;98282.09;5078373;28;20127;-64
2022/07/28 02:36:56;;;;;;;0.00;0.00;;;;;;;14.22;75.54;98286.66;5078151;28;20052;-64
2022/07/28 02:39:27;;;;;;;0.00;0.00;;;;;;;14.24;75.44;98295.34;5078380;28;20048;-64
2022/07/28 02:42:04;;;;;;;0.00;0.00;;;;;;;14.22;75.35;98291.13;5078467;28;20126;-63
2022/07/28 02:44:39;;;;;;;0.00;0.00;;;;;;;14.19;75.28;98291.34;5078059;28;20131;-63
2022/07/28 02:47:12;;;;;;;0.00;0.00;;;;;;;14.24;74.84;98289.19;5078389;28;20053;-65
2022/07/28 02:49:42;;;;;;;0.00;0.00;;;;;;;14.34;74.65;98295.50;5078120;28;20044;-64
2022/07/28 02:52:13;;;;;;;0.00;0.00;;;;;;;14.36;74.35;98297.06;5077137;28;20340;-64
2022/07/28 02:54:42;;;;;;;0.00;0.00;;;;;;;14.30;74.64;98297.53;5078686;28;20121;-63
2022/07/28 02:57:12;;;;;;;0.00;0.00;;;;;;;14.28;74.85;98295.94;5077916;28;20059;-64
2022/07/28 02:59:41;;;;;;;0.00;0.00;;;;;;;14.29;74.64;98298.47;5077612;28;20045;-63
2022/07/28 03:02:11;;;;;;;0.00;0.00;;;;;;;14.29;75.08;98305.59;5077791;28;20048;-65
2022/07/28 03:04:57;;;;;;;0.00;0.00;;;;;;;14.31;74.88;98308.94;5077523;28;20044;-64
2022/07/28 03:07:26;;;;;;;0.00;0.00;;;;;;;14.17;75.37;98306.47;5077471;28;20058;-65
2022/07/28 03:09:54;;;;;;;0.00;0.00;;;;;;;14.11;75.62;98309.56;5077514;28;20083;-64
2022/07/28 03:12:21;;;;;;;0.00;0.00;;;;;;;14.07;75.96;98321.34;5077370;28;20056;-64
2022/07/28 03:14:49;;;;;;;0.00;0.00;;;;;;;14.11;75.95;98321.00;5077280;28;20370;-64
2022/07/28 03:17:18;;;;;;;0.00;0.00;;;;;;;14.08;76.72;98323.88;5077273;28;20443;-64
2022/07/28 03:19:46;;;;;;;0.00;0.00;;;;;;;14.01;76.58;98314.69;5077326;28;20049;-64
2022/07/28 03:22:14;;;;;;;0.00;0.00;;;;;;;13.97;76.24;98318.53;5076991;28;20052;-64
2022/07/28 03:24:45;;;;;;;0.00;0.00;;;;;;;13.92;76.21;98323.28;5077344;28;20048;-64
2022/07/28 03:27:20;;;;;;;0.00;0.00;;;;;;;13.87;75.98;98317.50;5077336;28;20052;-64
2022/07/28 03:29:55;;;;;;;0.00;0.00;;;;;;;13.82;76.50;98330.22;5077683;28;20123;-63
2022/07/28 03:32:27;;;;;;;0.00;0.00;;;;;;;13.73;76.69;98325.59;5077372;28;20075;-64
2022/07/28 03:34:55;;;;;;;0.00;0.00;;;;;;;13.66;76.84;98328.78;5077292;28;20435;-65
2022/07/28 03:37:27;;;;;;;0.00;0.00;;;;;;;13.62;77.43;98329.97;5077193;28;20050;-63
2022/07/28 03:39:57;;;;;;;0.00;0.00;;;;;;;13.60;77.22;98335.38;5076642;28;20056;-64
2022/07/28 03:42:27;;;;;;;0.00;0.00;;;;;;;13.58;77.28;98337.25;5077082;28;20094;-64
2022/07/28 03:44:54;;;;;;;0.00;0.00;;;;;;;13.58;76.97;98339.91;5076877;28;20052;-63
2022/07/28 03:47:24;;;;;;;0.00;0.00;;;;;;;13.60;76.78;98347.72;5076983;28;20048;-63
2022/07/28 03:49:52;;;;;;;0.00;0.00;;;;;;;13.65;77.19;98351.75;5077111;28;20328;-64
2022/07/28 03:52:19;;;;;;;0.00;0.00;;;;;;;13.67;77.15;98351.63;5076894;28;20044;-64
2022/07/28 03:54:47;;;;;;;0.00;0.00;;;;;;;13.72;76.98;98347.69;5076643;28;20080;-64
2022/07/28 03:57:14;;;;;;;0.00;0.00;;;;;;;13.84;76.96;98348.59;5076841;28;20048;-64
2022/07/28 03:59:41;;;;;;;0.00;0.00;;;;;;;14.07;76.04;98353.09;5076302;28;20056;-64
2022/07/28 04:02:09;;;;;;;0.00;0.00;;;;;;;14.44;75.16;98360.03;5076803;28;20041;-64
2022/07/28 04:04:38;;;;;;;0.00;0.00;;;;;;;14.50;74.46;98352.47;5076637;28;20047;-63
2022/07/28 04:07:17;;;;;;;0.00;0.00;;;;;;;14.49;73.98;98353.44;5075143;28;20045;-64
2022/07/28 04:09:44;;;;;;;0.00;0.00;;;;;;;14.68;73.92;98354.72;5076584;28;20052;-64
2022/07/28 04:12:12;;;;;;;0.00;0.00;;;;;;;14.62;73.43;98363.09;5076513;28;20087;-64
2022/07/28 04:14:39;;;;;;;0.00;0.00;;;;;;;14.65;73.51;98366.34;5076582;28;20396;-63
2022/07/28 04:17:06;;;;;;;0.00;0.00;;;;;;;14.73;72.80;98365.78;5076603;28;20432;-64
2022/07/28 04:19:34;;;;;;;0.00;0.00;;;;;;;14.92;72.34;98376.66;5076587;28;20503;-64
2022/07/28 04:22:03;;;;;;;0.00;0.00;;;;;;;15.04;71.21;98363.31;5076408;28;20094;-64
2022/07/28 04:24:30;;;;;;;0.00;0.00;;;;;;;15.05;70.75;98372.13;5076393;28;20044;-65
2022/07/28 04:26:58;;;;;;;0.00;0.00;;;;;;;15.10;70.18;98365.53;5076728;28;20390;-64
2022/07/28 04:29:25;;;;;;;0.00;0.00;;;;;;;15.15;70.13;98359.88;5076512;28;20067;-64
2022/07/28 04:31:53;;;;;;;0.00;0.00;;;;;;;15.20;70.17;98360.38;5076468;28;20049;-64
2022/07/28 04:34:20;;;;;;;0.00;0.00;;;;;;;15.16;70.14;98366.88;5077917;28;20340;-64
2022/07/28 04:36:49;;;;;;;0.00;0.00;;;;;;;15.16;70.18;98364.22;5080663;28;20119;-64
2022/07/28 04:39:18;;;;;;;0.00;0.00;;;;;;;15.09;69.73;98355.84;5080173;28;20052;-63
2022/07/28 04:41:45;;;;;;;0.00;0.00;;;;;;;15.36;69.62;98352.91;5080677;28;20067;-64
2022/07/28 04:44:13;;;;;;;0.00;0.00;;;;;;;15.68;68.62;98359.19;5080458;28;20048;-64
2022/07/28 04:46:40;;;;;;;0.00;0.00;;;;;;;15.92;67.10;98360.72;5080476;28;20045;-64
2022/07/28 04:49:08;;;;;;;0.00;0.00;;;;;;;15.94;67.17;98356.13;5080285;28;20056;-64
2022/07/28 04:51:36;;;;;;;0.00;0.00;;;;;;;15.77;67.44;98358.44;5080294;28;20056;-64
2022/07/28 04:54:03;;;;;;;0.00;0.00;;;;;;;15.80;67.23;98368.81;5080185;28;20332;-63
2022/07/28 04:56:32;;;;;;;0.00;0.00;;;;;;;15.82;67.26;98364.22;5080390;28;20049;-63
2022/07/28 04:59:00;;;;;;;0.00;0.00;;;;;;;15.86;66.63;98357.72;5079151;28;20044;-63
2022/07/28 05:01:28;;;;;;;0.00;0.00;;;;;;;15.83;66.70;98363.25;5080012;28;20041;-64
2022/07/28 05:03:56;;;;;;;0.00;0.00;;;;;;;15.82;66.19;98361.59;5080226;28;20052;-63
2022/07/28 05:06:23;;;;;;;0.00;0.00;;;;;;;15.88;66.13;98366.38;5080051;28;20040;-63
2022/07/28 05:08:50;;;;;;;0.00;0.00;;;;;;;15.84;67.03;98364.94;5079955;28;20051;-63
2022/07/28 05:11:18;;;;;;;0.00;0.00;;;;;;;15.86;67.19;98369.16;5079319;28;20040;-63
2022/07/28 05:13:47;;;;;;;0.00;0.00;;;;;;;15.91;66.74;98374.09;5079814;28;20055;-64
2022/07/28 05:16:14;;;;;;;0.00;0.00;;;;;;;15.99;65.92;98369.00;5079950;28;20420;-63
2022/07/28 05:18:42;;;;;;;0.00;0.00;;;;;;;16.12;65.97;98367.09;5079712;28;20055;-62
2022/07/28 05:21:09;;;;;;;0.00;0.00;;;;;;;16.26;66.16;98375.63;5079789;28;20427;-63
2022/07/28 05:23:39;;;;;;;0.00;0.00;;;;;;;16.16;65.46;98365.88;5079596;28;20516;-63
2022/07/28 05:26:07;;;;;;;0.00;0.00;;;;;;;16.30;65.63;98374.38;5079594;28;20048;-63
2022/07/28 05:28:34;;;;;;;0.00;0.00;;;;;;;16.34;65.21;98380.31;5079621;28;20432;-63
2022/07/28 05:31:03;;;;;;;0.00;0.00;;;;;;;16.39;65.13;98367.50;5079503;28;20056;-63
2022/07/28 05:33:31;;;;;;;0.00;0.00;;;;;;;16.49;65.63;98371.09;5078166;28;20363;-63
2022/07/28 05:35:58;;;;;;;0.00;0.00;;;;;;;16.55;65.33;98375.88;5079146;28;20044;-63
2022/07/28 05:38:26;;;;;;;0.00;0.00;;;;;;;16.55;64.60;98360.78;5078995;28;20052;-63
2022/07/28 05:40:53;;;;;;;0.00;0.00;;;;;;;16.61;64.75;98370.91;5078983;28;20432;-63
2022/07/28 05:43:21;;;;;;;0.00;0.00;;;;;;;16.78;64.70;98378.28;5079489;28;20336;-63
2022/07/28 05:45:49;;;;;;;0.00;0.00;;;;;;;16.87;64.48;98379.34;5078623;28;20106;-62
2022/07/28 05:48:19;;;;;;;0.00;0.00;;;;;;;17.04;64.31;98366.34;5079412;28;20451;-63
2022/07/28 05:50:46;;;;;;;0.00;0.00;;;;;;;17.19;63.67;98374.84;5079183;28;20436;-63
2022/07/28 05:53:15;;;;;;;0.00;0.00;;;;;;;17.36;63.28;98372.41;5078038;28;20213;-63
2022/07/28 05:55:43;;;;;;;0.00;0.00;;;;;;;17.51;62.90;98367.56;5079037;28;20074;-63
2022/07/28 05:58:11;;;;;;;0.00;0.00;;;;;;;17.64;63.61;98368.19;5079330;28;20379;-64
2022/07/28 06:00:38;;;;;;;0.00;0.00;;;;;;;17.71;63.19;98380.00;5079116;28;20059;-63
2022/07/28 06:03:06;;;;;;;0.00;0.00;;;;;;;17.59;62.57;98378.41;5079315;28;20044;-64
2022/07/28 06:05:36;;;;;;;0.00;0.00;;;;;;;17.45;62.72;98384.94;5078986;28;20048;-63
2022/07/28 06:08:04;;;;;;;0.00;0.00;;;;;;;17.50;62.89;98387.19;5078892;28;20051;-63
2022/07/28 06:13:15;;;;;;;0.00;0.00;;;;;;;17.89;62.36;98393.53;5078660;28;20436;-63
2022/07/28 06:15:43;;;;;;;0.00;0.00;;;;;;;18.11;62.14;98390.66;5078557;28;20060;-64
2022/07/28 06:18:10;;;;;;;0.00;0.00;;;;;;;18.30;62.04;98390.69;5080826;28;20084;-63
2022/07/28 06:20:40;;;;;;;0.00;0.00;;;;;;;18.49;62.19;98388.91;5077900;28;20102;-64
2022/07/28 06:23:07;;;;;;;0.00;0.00;;;;;;;18.65;61.06;98391.88;5078564;28;20055;-63
2022/07/28 06:25:35;;;;;;;0.00;0.00;;;;;;;18.68;60.05;98390.78;5078749;28;20042;-63
2022/07/28 06:28:03;;;;;;;0.00;0.00;;;;;;;18.61;60.00;98393.13;5078721;28;20045;-63
2022/07/28 06:30:31;;;;;;;0.00;0.00;;;;;;;18.67;60.37;98389.94;5078426;28;20037;-64
2022/07/28 06:32:59;;;;;;;0.00;0.00;;;;;;;18.88;60.24;98389.78;5078245;28;20049;-63
2022/07/28 06:35:27;;;;;;;0.00;0.00;;;;;;;19.05;59.16;98389.91;5078342;28;20037;-63
2022/07/28 06:37:56;;;;;;;0.00;0.00;;;;;;;19.15;58.83;98390.75;5078354;28;20053;-63
2022/07/28 06:40:24;;;;;;;0.00;0.00;;;;;;;19.21;58.09;98392.84;5078279;28;20049;-64
2022/07/28 06:42:52;;;;;;;0.00;0.00;;;;;;;19.33;57.26;98388.16;5078508;28;20068;-63
2022/07/28 06:45:21;;;;;;;0.00;0.00;;;;;;;19.47;57.15;98388.59;5077102;28;20056;-63
2022/07/28 06:47:49;;;;;;;0.00;0.00;;;;;;;19.44;56.19;98388.88;5078139;28;20037;-63
2022/07/28 06:50:17;;;;;;;0.00;0.00;;;;;;;19.41;56.12;98394.50;5078141;28;20052;-63
2022/07/28 06:52:44;;;;;;;0.00;0.00;;;;;;;19.56;56.38;98384.22;5078069;28;20047;-63
2022/07/28 06:55:15;;;;;;;0.00;0.00;;;;;;;19.74;56.19;98391.31;5078315;28;20045;-64
2022/07/28 06:57:43;;;;;;;0.00;0.00;;;;;;;19.86;55.63;98391.97;5076899;28;20068;-63
2022/07/28 07:00:13;;;;;;;0.00;0.00;;;;;;;19.94;56.05;98392.06;5077581;28;20048;-63
2022/07/28 07:02:41;;;;;;;0.00;0.00;;;;;;;20.09;55.81;98401.25;5078330;28;20051;-64
2022/07/28 07:05:10;;;;;;;0.00;0.00;;;;;;;20.11;54.14;98394.78;5077746;28;20041;-63
2022/07/28 07:07:37;;;;;;;0.00;0.00;;;;;;;20.21;54.36;98395.59;5077745;28;20131;-62
2022/07/28 07:10:06;;;;;;;0.00;0.00;;;;;;;20.18;52.66;98385.22;5077617;28;20036;-63
2022/07/28 07:12:37;;;;;;;0.00;0.00;;;;;;;19.93;51.77;98385.88;5077521;28;20386;-63
2022/07/28 07:15:07;;;;;;;0.00;0.00;;;;;;;19.96;51.87;98396.25;5077471;28;20040;-63
2022/07/28 07:17:36;;;;;;;0.00;0.00;;;;;;;20.05;51.95;98394.53;5077245;28;20076;-63
2022/07/28 07:20:04;;;;;;;0.00;0.00;;;;;;;19.96;50.57;98393.59;5077390;28;20052;-65
2022/07/28 07:22:31;;;;;;;0.00;0.00;;;;;;;19.99;50.90;98389.78;5077419;28;20045;-63
2022/07/28 07:25:07;;;;;;;0.00;0.00;;;;;;;20.04;50.50;98390.19;5077261;28;20037;-64
2022/07/28 07:27:36;;;;;;;0.00;0.00;;;;;;;20.05;51.14;98390.00;5077606;28;20040;-64
2022/07/28 07:30:05;;;;;;;0.00;0.00;;;;;;;20.08;51.55;98389.72;5077013;28;20043;-63
2022/07/28 07:32:33;;;;;;;0.00;0.00;;;;;;;20.20;51.73;98385.91;5077216;28;20079;-63
2022/07/28 07:35:01;;;;;;;0.00;0.00;;;;;;;20.19;51.74;98381.53;5077461;28;20036;-63
2022/07/28 07:37:31;;;;;;;0.00;0.00;;;;;;;20.40;51.91;98387.47;5077363;28;20049;-63
2022/07/28 07:39:59;;;;;;;0.00;0.00;;;;;;;20.47;52.08;98385.88;5076363;28;20368;-63
2022/07/28 07:42:26;;;;;;;0.00;0.00;;;;;;;20.54;51.66;98381.59;5075141;28;20040;-63
2022/07/28 07:44:56;;;;;;;0.00;0.00;;;;;;;20.50;51.76;98387.38;5076449;28;20041;-63
2022/07/28 07:47:26;;;;;;;0.00;0.00;;;;;;;20.59;51.86;98386.47;5077044;28;20075;-63
2022/07/28 07:49:53;;;;;;;0.00;0.00;;;;;;;20.73;50.74;98390.47;5076490;28;20182;-64
2022/07/28 07:52:21;;;;;;;0.00;0.00;;;;;;;20.57;50.62;98386.66;5074812;28;20059;-62
2022/07/28 07:54:48;;;;;;;0.00;0.00;;;;;;;20.54;49.75;98386.94;5073661;28;20053;-62
2022/07/28 07:57:16;;;;;;;0.00;0.00;;;;;;;20.56;49.49;98384.13;5073743;28;20132;-63
2022/07/28 07:59:44;;;;;;;0.00;0.00;;;;;;;20.54;49.98;98386.09;5073371;28;20068;-63
2022/07/28 08:02:13;;;;;;;0.00;0.00;;;;;;;20.51;49.33;98386.38;5073839;28;20135;-61
2022/07/28 08:04:40;;;;;;;0.00;0.00;;;;;;;20.49;48.55;98391.88;5072636;28;20072;-61
2022/07/28 08:07:08;;;;;;;0.00;0.00;;;;;;;20.48;49.02;98389.34;5058281;28;20048;-61
2022/07/28 08:09:35;;;;;;;0.00;0.00;;;;;;;20.47;48.88;98391.22;5074659;28;20131;-61
2022/07/28 08:12:04;;;;;;;0.00;0.00;;;;;;;20.48;49.28;98387.53;5076749;28;20047;-62
2022/07/28 08:14:31;;;;;;;0.00;0.00;;;;;;;20.57;49.37;98391.13;5076629;28;20040;-61
2022/07/28 08:16:59;;;;;;;0.00;0.00;;;;;;;20.66;49.84;98390.22;5076437;28;20070;-61
2022/07/28 08:19:30;;;;;;;0.00;0.00;;;;;;;20.74;49.83;98385.78;5077070;28;20110;-61
2022/07/28 08:21:57;;;;;;;0.00;0.00;;;;;;;20.84;49.83;98387.56;5076482;28;20387;-61
2022/07/28 08:24:24;;;;;;;0.00;0.00;;;;;;;21.01;49.07;98376.00;5076462;28;20047;-62
2022/07/28 08:26:52;;;;;;;0.00;0.00;;;;;;;21.07;48.88;98376.25;5076548;28;20094;-62
2022/07/28 08:29:19;;;;;;;0.00;0.00;;;;;;;21.01;48.11;98376.88;5076356;28;20076;-61
2022/07/28 08:31:47;;;;;;;0.00;0.00;;;;;;;20.97;49.19;98375.50;5087278;28;20040;-63
2022/07/28 08:34:14;;;;;;;0.00;0.00;;;;;;;21.06;48.95;98371.06;5096311;28;20059;-61
2022/07/28 08:36:43;;;;;;;0.00;0.00;;;;;;;21.34;49.00;98377.94;5096498;28;20047;-62
2022/07/28 08:39:11;;;;;;;0.00;0.00;;;;;;;21.32;48.67;98367.38;5096433;28;20072;-63
2022/07/28 08:41:47;;;;;;;0.00;0.00;;;;;;;21.27;48.58;98375.06;5096488;28;20093;-63
2022/07/28 08:44:18;;;;;;;0.00;0.00;;;;;;;21.28;48.91;98370.56;5096287;28;20055;-63
2022/07/28 08:46:47;;;;;;;0.00;0.00;;;;;;;21.23;48.31;98373.69;5090972;28;20048;-62
2022/07/28 08:49:16;;;;;;;0.00;0.00;;;;;;;21.40;49.12;98375.47;5076104;28;20040;-63
2022/07/28 08:51:48;;;;;;;0.00;0.00;;;;;;;21.54;48.46;98377.56;5076267;28;20162;-62
2022/07/28 08:54:20;;;;;;;0.00;0.00;;;;;;;21.50;48.59;98378.06;5075982;28;20070;-63
2022/07/28 08:56:49;;;;;;;0.00;0.00;;;;;;;21.42;48.85;98377.97;5076258;28;20390;-63
2022/07/28 08:59:17;;;;;;;0.00;0.00;;;;;;;21.25;49.06;98377.03;5074918;28;20482;-63
2022/07/28 09:01:46;;;;;;;0.00;0.00;;;;;;;21.33;49.35;98378.94;5076058;28;20053;-62
2022/07/28 09:04:14;;;;;;;0.00;0.00;;;;;;;21.41;49.35;98368.28;5075614;28;20068;-62
2022/07/28 09:06:44;;;;;;;0.00;0.00;;;;;;;21.39;49.65;98365.75;5074880;28;20428;-62
2022/07/28 09:09:11;;;;;;;0.00;0.00;;;;;;;21.47;49.58;98371.16;5057369;28;20321;-62
2022/07/28 09:11:39;;;;;;;0.00;0.00;;;;;;;21.48;49.80;98364.81;5076112;28;20363;-62
2022/07/28 09:14:07;;;;;;;0.00;0.00;;;;;;;21.43;48.95;98367.13;5075852;28;20051;-62
2022/07/28 09:16:34;;;;;;;0.00;0.00;;;;;;;21.45;49.67;98366.97;5074182;28;20041;-63
2022/07/28 09:19:02;;;;;;;0.00;0.00;;;;;;;21.58;48.81;98362.84;5074283;28;20058;-62
2022/07/28 09:21:30;;;;;;;0.00;0.00;;;;;;;21.68;48.77;98360.09;5076124;28;20344;-62
2022/07/28 09:24:00;;;;;;;0.00;0.00;;;;;;;22.00;49.75;98353.06;5078381;28;20044;-62
2022/07/28 09:26:27;;;;;;;0.00;0.00;;;;;;;22.09;49.30;98349.38;5077832;28;20049;-63
2022/07/28 09:28:56;;;;;;;0.00;0.00;;;;;;;21.97;48.97;98349.84;5078583;28;20044;-62
2022/07/28 09:31:26;;;;;;;0.00;0.00;;;;;;;21.75;48.51;98361.13;5078770;28;20045;-62
2022/07/28 09:33:56;;;;;;;0.00;0.00;;;;;;;21.67;48.19;98358.41;5079167;28;20037;-62
2022/07/28 09:36:24;;;;;;;0.00;0.00;;;;;;;21.57;48.37;98363.00;5077731;28;20123;-63
2022/07/28 09:38:51;;;;;;;0.00;0.00;;;;;;;21.58;48.80;98357.50;5077708;28;20040;-63
2022/07/28 09:41:21;;;;;;;0.00;0.00;;;;;;;21.65;48.22;98355.06;5076879;28;20045;-63
2022/07/28 09:43:50;;;;;;;0.00;0.00;;;;;;;21.77;49.61;98356.47;5077383;28;20121;-63
2022/07/28 09:46:19;;;;;;;0.00;0.00;;;;;;;21.97;49.79;98352.53;5077316;28;20037;-62
2022/07/28 09:48:55;;;;;;;0.00;0.00;;;;;;;22.10;49.75;98348.38;5077447;28;20079;-62
2022/07/28 09:51:27;;;;;;;0.00;0.00;;;;;;;22.20;49.02;98343.72;5078796;28;20048;-62
2022/07/28 09:54:07;;;;;;;0.00;0.00;;;;;;;22.30;49.25;98347.09;5079530;28;20440;-63
2022/07/28 09:56:36;;;;;;;0.00;0.00;;;;;;;22.34;48.35;98347.63;5079603;28;20049;-62
2022/07/28 09:59:04;;;;;;;0.00;0.00;;;;;;;22.34;48.54;98358.38;5079062;28;20051;-62
2022/07/28 10:01:32;;;;;;;0.00;0.00;;;;;;;22.41;48.39;98351.34;5078890;28;20136;-62
2022/07/28 10:04:00;;;;;;;0.00;0.00;;;;;;;22.40;48.47;98355.88;5079163;28;20047;-62
2022/07/28 10:06:31;;;;;;;0.00;0.00;;;;;;;22.49;48.74;98348.66;5078905;28;20086;-62
2022/07/28 10:08:59;;;;;;;0.00;0.00;;;;;;;22.59;47.68;98352.03;5079321;28;20067;-61
2022/07/28 10:11:29;;;;;;;0.00;0.00;;;;;;;22.56;47.92;98344.31;5078821;28;20067;-63
2022/07/28 10:14:01;;;;;;;0.00;0.00;;;;;;;22.47;47.78;98348.88;5078642;28;20047;-63
2022/07/28 10:16:31;;;;;;;0.00;0.00;;;;;;;22.50;47.32;98345.81;5078847;28;20144;-62
2022/07/28 10:19:00;;;;;;;0.00;0.00;;;;;;;22.55;48.95;98338.16;5090491;28;20040;-62
2022/07/28 10:21:30;;;;;;;0.00;0.00;;;;;;;22.62;47.91;98344.53;5097804;28;20055;-63
2022/07/28 10:24:00;;;;;;;0.00;0.00;;;;;;;22.48;47.69;98341.63;5097949;28;20431;-62
2022/07/28 10:26:32;;;;;;;0.00;0.00;;;;;;;22.43;47.65;98349.34;5098474;28;20317;-63
2022/07/28 10:29:05;;;;;;;0.00;0.00;;;;;;;22.40;47.13;98334.44;5098755;28;20048;-63
2022/07/28 10:31:35;;;;;;;0.00;0.00;;;;;;;22.51;47.56;98328.75;5093481;28;20162;-62
2022/07/28 10:34:05;;;;;;;0.00;0.00;;;;;;;22.70;47.41;98333.78;5079781;28;20041;-62
2022/07/28 10:36:34;;;;;;;0.00;0.00;;;;;;;22.67;47.99;98326.06;5078498;28;20498;-62
2022/07/28 10:39:11;;;;;;;0.00;0.00;;;;;;;22.79;47.65;98329.28;5078033;28;20436;-61
2022/07/28 10:41:41;;;;;;;0.00;0.00;;;;;;;22.83;47.15;98335.97;5078313;28;20052;-63
2022/07/28 10:44:12;;;;;;;0.00;0.00;;;;;;;22.85;47.16;98318.69;5092279;28;20372;-63
2022/07/28 10:46:43;;;;;;;0.00;0.00;;;;;;;23.02;46.78;98324.94;5098455;28;20339;-63
2022/07/28 10:49:12;;;;;;;0.00;0.00;;;;;;;23.21;47.05;98320.03;5098318;28;20044;-62
2022/07/28 10:51:42;;;;;;;0.00;0.00;;;;;;;23.30;47.49;98328.91;5098437;28;20040;-63
2022/07/28 10:54:17;;;;;;;0.00;0.00;;;;;;;23.13;45.95;98327.28;5098484;28;20381;-62
2022/07/28 10:56:51;;;;;;;0.00;0.00;;;;;;;23.39;47.87;98322.53;5098310;28;20044;-62
2022/07/28 11:00:00;;;;;;;0.00;0.00;;;;;;;23.76;46.84;98328.13;5098371;28;20097;-62
2022/07/28 11:02:44;;;;;;;0.00;0.00;;;;;;;23.92;45.59;98329.94;5098139;28;20051;-62
2022/07/28 11:05:34;;;;;;;0.00;0.00;;;;;;;24.01;45.64;98324.34;5098138;28;20044;-62
2022/07/28 11:08:03;;;;;;;0.00;0.00;;;;;;;24.16;45.58;98321.72;5098017;28;20052;-62
2022/07/28 11:10:44;;;;;;;0.00;0.00;;;;;;;24.42;45.37;98323.13;5097953;28;20055;-63
2022/07/28 11:13:24;;;;;;;0.00;0.00;;;;;;;24.56;44.46;98316.97;5097890;28;20378;-62
2022/07/28 11:15:54;;;;;;;0.00;0.00;;;;;;;24.61;44.43;98319.97;5098026;28;20447;-63
2022/07/28 11:18:22;;;;;;;0.00;0.00;;;;;;;24.74;44.66;98322.06;5097578;28;20052;-63
2022/07/28 11:21:09;;;;;;;0.00;0.00;;;;;;;24.78;45.03;98313.44;5097172;28;20048;-62
2022/07/28 11:23:55;;;;;;;0.00;0.00;;;;;;;24.71;44.49;98314.34;5098064;28;20071;-62
2022/07/28 11:26:37;;;;;;;0.00;0.00;;;;;;;24.62;44.60;98318.94;5097246;28;20044;-62
2022/07/28 11:29:15;;;;;;;0.00;0.00;;;;;;;24.52;44.69;98318.34;5092693;28;20063;-63
2022/07/28 11:32:08;;;;;;;0.00;0.00;;;;;;;24.47;44.93;98314.53;5082278;28;20046;-62
2022/07/28 11:35:07;;;;;;;0.00;0.00;;;;;;;24.73;44.61;98315.81;5096261;28;20075;-63
2022/07/28 11:38:12;;;;;;;0.00;0.00;;;;;;;24.77;45.03;98305.56;5091491;28;20052;-63
2022/07/28 11:40:42;;;;;;;0.00;0.00;;;;;;;24.78;44.50;98308.06;5097411;28;20056;-64
2022/07/28 11:43:32;;;;;;;0.00;0.00;;;;;;;25.09;44.09;98300.72;5090639;28;20134;-64
2022/07/28 11:46:24;;;;;;;0.00;0.00;;;;;;;25.24;44.31;98301.59;5081452;28;20036;-63
2022/07/28 11:49:15;;;;;;;0.00;0.00;;;;;;;24.97;44.05;98296.81;5076727;28;20386;-63
2022/07/28 11:52:17;;;;;;;0.00;0.00;;;;;;;24.76;44.62;98304.69;5075253;28;20049;-63